createdAt,value
2022-12-23T00:01:44.813Z,98.20
2022-12-23T00:04:14.904Z,95.40
2022-12-23T00:06:43.378Z,88.67
2022-12-23T00:09:11.707Z,91.53
2022-12-23T00:12:00.792Z,81.27
2022-12-23T00:14:46.515Z,77.10
2022-12-23T00:17:22.439Z,75.77
2022-12-23T00:19:53.081Z,75.63
2022-12-23T00:22:41.508Z,65.80
2022-12-23T00:25:10.204Z,68.00
2022-12-23T00:27:38.646Z,69.67
2022-12-23T00:30:09.337Z,66.83
2022-12-23T00:32:37.749Z,69.27
2022-12-23T00:35:08.343Z,74.53
2022-12-23T00:37:36.762Z,69.13
2022-12-23T00:40:23.466Z,64.27
2022-12-23T00:42:54.728Z,66.93
2022-12-23T00:45:23.510Z,73.93
2022-12-23T00:48:08.934Z,65.83
2022-12-23T00:50:40.485Z,64.80
2022-12-23T00:53:09.027Z,64.07
2022-12-23T00:55:37.373Z,63.13
2022-12-23T00:58:05.702Z,69.03
2022-12-23T01:00:51.429Z,64.30
2022-12-23T01:03:37.243Z,65.13
2022-12-23T01:06:07.530Z,60.73
2022-12-23T01:08:36.010Z,64.80
2022-12-23T01:11:04.908Z,59.33
2022-12-23T01:13:34.065Z,61.20
2022-12-23T01:16:03.234Z,63.97
2022-12-23T01:18:31.855Z,59.53
2022-12-23T01:21:03.303Z,64.50
2022-12-23T01:23:33.778Z,62.43
2022-12-23T01:26:04.215Z,66.17
2022-12-23T01:28:33.820Z,69.67
2022-12-23T01:31:03.825Z,68.40
2022-12-23T01:33:33.198Z,69.40
2022-12-23T01:36:02.171Z,66.07
2022-12-23T01:38:32.277Z,60.63
2022-12-23T01:41:00.851Z,66.43
2022-12-23T01:43:45.287Z,65.30
2022-12-23T01:46:13.806Z,61.90
2022-12-23T01:48:44.786Z,63.97
2022-12-23T01:51:17.380Z,70.17
2022-12-23T01:53:51.465Z,67.83
2022-12-23T01:56:24.594Z,67.90
2022-12-23T01:58:58.245Z,66.50
2022-12-23T02:01:45.761Z,72.33
2022-12-23T02:04:19.648Z,64.90
2022-12-23T02:07:08.207Z,66.63
2022-12-23T02:09:39.723Z,63.03
2022-12-23T02:12:34.838Z,65.13
2022-12-23T02:15:33.887Z,65.90
2022-12-23T02:18:14.861Z,58.70
2022-12-23T02:21:13.823Z,59.80
2022-12-23T02:24:20.774Z,61.30
2022-12-23T02:27:20.317Z,65.10
2022-12-23T02:30:24.915Z,67.93
2022-12-23T02:33:16.527Z,52.43
2022-12-23T02:35:52.794Z,66.73
2022-12-23T02:38:27.856Z,65.80
2022-12-23T02:41:05.540Z,66.93
2022-12-23T02:43:43.654Z,67.57
2022-12-23T02:46:19.401Z,65.87
2022-12-23T02:48:53.800Z,79.67
2022-12-23T02:51:27.479Z,63.13
2022-12-23T02:53:58.684Z,73.00
2022-12-23T02:56:30.494Z,68.97
2022-12-23T02:59:05.140Z,69.20
2022-12-23T03:01:35.128Z,70.10
2022-12-23T03:04:06.765Z,65.03
2022-12-23T03:06:40.377Z,61.17
2022-12-23T03:09:09.370Z,61.13
2022-12-23T03:11:47.203Z,59.70
2022-12-23T03:14:37.565Z,58.97
2022-12-23T03:17:21.913Z,62.70
2022-12-23T03:19:55.374Z,57.23
2022-12-23T03:22:29.691Z,69.37
2022-12-23T03:25:04.514Z,59.07
2022-12-23T03:27:40.089Z,64.43
2022-12-23T03:30:11.457Z,58.87
2022-12-23T03:32:48.075Z,71.33
2022-12-23T03:35:21.261Z,80.83
2022-12-23T03:37:52.989Z,74.63
2022-12-23T03:40:26.130Z,80.37
2022-12-23T03:43:01.715Z,76.97
2022-12-23T03:45:39.840Z,72.10
2022-12-23T03:48:16.593Z,77.67
2022-12-23T03:50:49.766Z,78.10
2022-12-23T03:53:22.956Z,79.57
2022-12-23T03:55:55.259Z,76.93
2022-12-23T03:58:34.769Z,83.93
2022-12-23T04:01:14.192Z,81.80
2022-12-23T04:03:55.464Z,79.00
2022-12-23T04:06:28.305Z,73.07
2022-12-23T04:08:58.045Z,66.17
2022-12-23T04:11:26.956Z,63.10
2022-12-23T04:13:55.485Z,53.30
2022-12-23T04:16:24.230Z,58.10
2022-12-23T04:18:52.855Z,58.53
2022-12-23T04:21:21.398Z,70.47
2022-12-23T04:23:51.215Z,68.30
2022-12-23T04:26:19.641Z,68.93
2022-12-23T04:28:47.991Z,70.17
2022-12-23T04:31:16.379Z,71.23
2022-12-23T04:33:44.715Z,70.43
2022-12-23T04:36:13.158Z,77.73
2022-12-23T04:38:41.434Z,75.03
2022-12-23T04:41:11.306Z,61.90
2022-12-23T04:43:39.672Z,70.20
2022-12-23T04:46:08.105Z,64.30
2022-12-23T04:48:37.165Z,50.97
2022-12-23T04:51:06.576Z,44.20
2022-12-23T04:53:37.208Z,44.83
2022-12-23T04:56:06.011Z,39.57
2022-12-23T04:58:35.932Z,40.17
2022-12-23T05:01:05.783Z,39.67
2022-12-23T05:03:34.816Z,35.43
2022-12-23T05:06:03.340Z,45.07
2022-12-23T05:08:32.114Z,42.53
2022-12-23T05:11:00.579Z,34.67
2022-12-23T05:13:28.973Z,37.80
2022-12-23T05:15:58.729Z,36.23
2022-12-23T05:18:27.330Z,34.73
2022-12-23T05:20:55.679Z,35.93
2022-12-23T05:23:23.911Z,31.03
2022-12-23T05:25:53.777Z,34.97
2022-12-23T05:28:23.083Z,32.30
2022-12-23T05:30:59.934Z,41.30
2022-12-23T05:33:29.060Z,33.13
2022-12-23T05:35:57.722Z,33.40
2022-12-23T05:38:26.380Z,37.77
2022-12-23T05:40:55.336Z,30.80
2022-12-23T05:43:24.018Z,30.23
2022-12-23T05:45:53.245Z,24.67
2022-12-23T05:48:23.155Z,32.13
2022-12-23T05:50:52.199Z,24.97
2022-12-23T05:53:21.215Z,26.40
2022-12-23T05:55:49.629Z,22.00
2022-12-23T05:58:18.429Z,26.27
2022-12-23T06:00:46.908Z,23.50
2022-12-23T06:03:15.647Z,24.47
2022-12-23T06:05:45.592Z,24.93
2022-12-23T06:08:14.029Z,25.50
2022-12-23T06:10:42.383Z,21.93
2022-12-23T06:13:10.955Z,23.77
2022-12-23T06:15:39.388Z,27.90
2022-12-23T06:18:07.908Z,24.33
2022-12-23T06:20:36.455Z,29.27
2022-12-23T06:23:06.367Z,31.27
2022-12-23T06:25:34.795Z,28.43
2022-12-23T06:28:03.325Z,35.70
2022-12-23T06:30:31.682Z,27.73
2022-12-23T06:33:00.110Z,35.40
2022-12-23T06:35:28.538Z,31.13
2022-12-23T06:37:57.039Z,27.07
2022-12-23T06:40:29.050Z,22.83
2022-12-23T06:42:57.522Z,25.67
2022-12-23T06:45:26.009Z,27.90
2022-12-23T06:47:54.465Z,27.90
2022-12-23T06:50:22.847Z,40.07
2022-12-23T06:52:51.652Z,30.07
2022-12-23T06:55:19.993Z,44.97
2022-12-23T06:57:49.662Z,41.73
2022-12-23T07:00:18.840Z,51.40
2022-12-23T07:02:47.518Z,47.73
2022-12-23T07:05:17.087Z,51.93
2022-12-23T07:07:45.445Z,44.40
2022-12-23T07:10:13.755Z,45.80
2022-12-23T07:12:46.089Z,38.30
2022-12-23T07:15:20.183Z,37.17
2022-12-23T07:17:48.608Z,31.13
2022-12-23T07:20:17.171Z,31.43
2022-12-23T07:22:45.941Z,28.93
2022-12-23T07:25:14.692Z,28.57
2022-12-23T07:27:43.500Z,26.60
2022-12-23T07:30:12.446Z,26.60
2022-12-23T07:32:42.189Z,24.00
2022-12-23T07:35:10.930Z,28.87
2022-12-23T07:37:39.440Z,25.53
2022-12-23T07:40:09.543Z,27.77
2022-12-23T07:42:46.855Z,31.23
2022-12-23T07:45:15.626Z,25.70
2022-12-23T07:47:45.352Z,27.23
2022-12-23T07:50:13.946Z,26.97
2022-12-23T07:52:42.371Z,31.57
2022-12-23T07:55:11.129Z,25.93
2022-12-23T07:57:40.729Z,24.73
2022-12-23T08:00:12.854Z,29.50
2022-12-23T08:02:42.662Z,32.97
2022-12-23T08:05:13.685Z,26.93
2022-12-23T08:07:42.161Z,31.90
2022-12-23T08:10:11.635Z,26.57
2022-12-23T08:12:39.996Z,27.23
2022-12-23T08:15:10.424Z,34.83
2022-12-23T08:17:38.955Z,31.30
2022-12-23T08:20:08.951Z,31.20
2022-12-23T08:22:38.859Z,29.03
2022-12-23T08:25:08.126Z,36.03
2022-12-23T08:27:36.777Z,26.90
2022-12-23T08:30:05.851Z,30.23
2022-12-23T08:32:34.202Z,34.43
2022-12-23T08:35:02.737Z,40.80
2022-12-23T08:37:31.015Z,34.77
2022-12-23T08:40:00.799Z,36.37
2022-12-23T08:42:29.246Z,37.43
2022-12-23T08:44:57.682Z,32.37
2022-12-23T08:47:26.040Z,35.70
2022-12-23T08:49:54.651Z,41.30
2022-12-23T08:52:23.110Z,40.77
2022-12-23T08:54:51.477Z,37.90
2022-12-23T08:57:21.252Z,31.67
2022-12-23T08:59:49.600Z,31.77
2022-12-23T09:02:18.094Z,37.00
2022-12-23T09:04:46.813Z,39.03
2022-12-23T09:07:15.195Z,41.00
2022-12-23T09:09:43.748Z,37.83
2022-12-23T09:12:12.225Z,41.00
2022-12-23T09:14:42.092Z,39.73
2022-12-23T09:17:10.533Z,38.60
2022-12-23T09:19:38.900Z,37.70
2022-12-23T09:22:07.339Z,32.53
2022-12-23T09:24:35.720Z,34.47
2022-12-23T09:27:04.214Z,34.70
2022-12-23T09:29:32.889Z,29.17
2022-12-23T09:32:02.782Z,28.80
2022-12-23T09:34:31.496Z,29.77
2022-12-23T09:36:59.865Z,27.97
2022-12-23T09:39:28.600Z,31.57
2022-12-23T09:42:06.166Z,34.27
2022-12-23T09:44:44.413Z,27.03
2022-12-23T09:47:17.677Z,30.30
2022-12-23T09:49:50.089Z,30.83
2022-12-23T09:52:24.996Z,26.43
2022-12-23T09:54:56.070Z,31.63
2022-12-23T09:57:32.563Z,26.43
2022-12-23T10:00:12.176Z,29.77
2022-12-23T10:02:54.171Z,29.33
2022-12-23T10:05:31.510Z,32.43
2022-12-23T10:08:05.006Z,29.60
2022-12-23T10:10:38.930Z,27.73
2022-12-23T10:13:29.721Z,31.27
2022-12-23T10:16:03.510Z,32.60
2022-12-23T10:18:43.509Z,27.03
2022-12-23T10:21:17.702Z,31.10
2022-12-23T10:23:51.486Z,27.70
2022-12-23T10:26:25.063Z,25.27
2022-12-23T10:29:19.251Z,30.77
2022-12-23T10:32:00.816Z,23.67
2022-12-23T10:34:38.956Z,32.80
2022-12-23T10:37:12.932Z,29.80
2022-12-23T10:39:51.533Z,28.17
2022-12-23T10:42:28.740Z,26.57
2022-12-23T10:45:09.106Z,30.43
2022-12-23T10:47:49.119Z,40.10
2022-12-23T10:50:40.170Z,57.37
2022-12-23T10:53:13.653Z,58.60
2022-12-23T10:55:42.122Z,63.63
2022-12-23T10:58:16.249Z,61.73
2022-12-23T11:00:49.174Z,60.93
2022-12-23T11:03:23.502Z,62.67
2022-12-23T11:05:54.645Z,59.20
2022-12-23T11:08:25.484Z,56.40
2022-12-23T11:10:55.037Z,66.03
2022-12-23T11:13:34.683Z,57.10
2022-12-23T11:16:25.734Z,56.80
2022-12-23T11:19:00.777Z,58.60
2022-12-23T11:21:32.682Z,56.10
2022-12-23T11:24:18.797Z,59.00
2022-12-23T11:26:50.370Z,52.87
2022-12-23T11:29:24.092Z,55.47
2022-12-23T11:31:53.477Z,49.57
2022-12-23T11:34:24.502Z,56.23
2022-12-23T11:37:01.568Z,55.20
2022-12-23T11:39:34.113Z,77.33
2022-12-23T11:42:12.487Z,56.30
2022-12-23T11:44:43.950Z,63.83
2022-12-23T11:47:30.880Z,51.87
2022-12-23T11:50:01.695Z,55.83
2022-12-23T11:52:33.399Z,53.97
2022-12-23T11:55:04.123Z,61.90
2022-12-23T11:57:40.057Z,59.33
2022-12-23T12:00:17.823Z,51.77
2022-12-23T12:02:48.615Z,57.90
2022-12-23T12:05:26.509Z,55.87
2022-12-23T12:08:01.268Z,52.10
2022-12-23T12:10:32.327Z,51.70
2022-12-23T12:13:04.691Z,48.13
2022-12-23T12:15:42.504Z,47.27
2022-12-23T12:18:14.621Z,61.97
2022-12-23T12:20:46.959Z,54.47
2022-12-23T12:23:22.604Z,53.63
2022-12-23T12:25:56.687Z,58.10
2022-12-23T12:28:26.927Z,52.87
2022-12-23T12:31:01.402Z,54.53
2022-12-23T12:33:36.760Z,55.17
2022-12-23T12:36:13.746Z,52.73
2022-12-23T12:38:47.802Z,57.17
2022-12-23T12:41:20.114Z,65.43
2022-12-23T12:43:53.688Z,61.40
2022-12-23T12:46:30.324Z,56.33
2022-12-23T12:49:04.917Z,55.90
2022-12-23T12:51:39.413Z,89.93
2022-12-23T12:54:20.781Z,63.20
2022-12-23T12:56:52.277Z,64.00
2022-12-23T12:59:23.508Z,63.60
2022-12-23T13:02:16.146Z,60.10
2022-12-23T13:05:26.302Z,54.07
2022-12-23T13:08:18.086Z,59.90
2022-12-23T13:10:51.049Z,63.33
2022-12-23T13:13:36.826Z,52.73
2022-12-23T13:16:15.310Z,60.40
2022-12-23T13:18:52.457Z,54.20
2022-12-23T13:21:27.146Z,56.13
2022-12-23T13:24:05.029Z,57.20
2022-12-23T13:26:39.919Z,54.57
2022-12-23T13:29:41.030Z,64.00
2022-12-23T13:32:27.039Z,54.53
2022-12-23T13:35:04.161Z,56.50
2022-12-23T13:37:40.588Z,57.97
2022-12-23T13:40:26.038Z,60.37
2022-12-23T13:43:00.522Z,57.97
2022-12-23T13:45:34.138Z,53.33
2022-12-23T13:48:20.695Z,62.07
2022-12-23T13:50:55.085Z,52.23
2022-12-23T13:53:30.175Z,66.53
2022-12-23T13:56:10.972Z,60.13
2022-12-23T13:58:42.421Z,54.30
2022-12-23T14:01:34.342Z,55.23
2022-12-23T14:04:31.896Z,52.90
2022-12-23T14:07:02.329Z,57.37
2022-12-23T14:09:34.392Z,58.10
2022-12-23T14:12:20.155Z,51.33
2022-12-23T14:15:13.009Z,57.13
2022-12-23T14:17:52.179Z,62.83
2022-12-23T14:20:33.438Z,66.43
2022-12-23T14:23:18.903Z,61.73
2022-12-23T14:26:00.355Z,63.73
2022-12-23T14:28:46.855Z,70.23
2022-12-23T14:31:40.666Z,52.53
2022-12-23T14:34:28.131Z,65.30
2022-12-23T14:37:16.446Z,58.50
2022-12-23T14:39:44.997Z,52.10
2022-12-23T14:42:16.871Z,60.13
2022-12-23T14:44:49.822Z,58.23
2022-12-23T14:47:35.047Z,59.80
2022-12-23T14:50:39.250Z,64.10
2022-12-23T14:53:23.417Z,59.00
2022-12-23T14:56:10.678Z,55.20
2022-12-23T14:59:03.454Z,61.90
2022-12-23T15:01:37.041Z,49.87
2022-12-23T15:04:20.272Z,54.70
2022-12-23T15:06:51.857Z,54.10
2022-12-23T15:09:25.969Z,54.93
2022-12-23T15:11:55.783Z,59.60
2022-12-23T15:14:33.288Z,53.30
2022-12-23T15:17:15.453Z,58.40
2022-12-23T15:19:48.314Z,49.20
2022-12-23T15:22:24.132Z,58.23
2022-12-23T15:24:58.732Z,49.07
2022-12-23T15:27:30.314Z,61.20
2022-12-23T15:29:59.461Z,53.10
2022-12-23T15:32:28.960Z,54.40
2022-12-23T15:35:04.255Z,52.47
2022-12-23T15:37:33.795Z,51.43
2022-12-23T15:40:12.255Z,55.90
2022-12-23T15:42:47.313Z,51.73
2022-12-23T15:45:35.179Z,52.63
2022-12-23T15:48:04.681Z,49.87
2022-12-23T15:50:40.611Z,56.80
2022-12-23T15:53:11.437Z,50.90
2022-12-23T15:55:41.951Z,52.73
2022-12-23T15:58:19.143Z,59.67
2022-12-23T16:00:56.448Z,58.67
2022-12-23T16:03:29.595Z,59.93
2022-12-23T16:06:10.549Z,51.57
2022-12-23T16:08:39.962Z,52.90
2022-12-23T16:11:15.659Z,61.43
2022-12-23T16:13:58.770Z,56.60
2022-12-23T16:16:40.770Z,51.73
2022-12-23T16:19:39.078Z,53.60
2022-12-23T16:22:29.165Z,42.53
2022-12-23T16:25:08.118Z,48.50
2022-12-23T16:27:39.985Z,49.17
2022-12-23T16:30:17.586Z,49.13
2022-12-23T16:32:50.657Z,45.63
2022-12-23T16:35:29.675Z,51.70
2022-12-23T16:38:15.823Z,48.97
2022-12-23T16:40:45.566Z,42.67
2022-12-23T16:43:14.260Z,42.97
2022-12-23T16:45:43.163Z,41.03
2022-12-23T16:48:19.461Z,42.80
2022-12-23T16:50:48.264Z,39.30
2022-12-23T16:53:18.155Z,49.67
2022-12-23T16:55:53.732Z,50.20
2022-12-23T16:58:25.197Z,50.47
2022-12-23T17:00:54.406Z,49.50
2022-12-23T17:03:22.956Z,45.57
2022-12-23T17:05:51.331Z,45.30
2022-12-23T17:08:21.180Z,47.90
2022-12-23T17:10:49.804Z,43.60
2022-12-23T17:13:19.848Z,34.77
2022-12-23T17:15:48.349Z,38.97
2022-12-23T17:18:18.685Z,36.00
2022-12-23T17:20:48.457Z,37.37
2022-12-23T17:23:27.148Z,35.60
2022-12-23T17:25:55.826Z,44.27
2022-12-23T17:28:27.256Z,37.43
2022-12-23T17:30:56.853Z,37.97
2022-12-23T17:33:28.823Z,41.97
2022-12-23T17:35:57.446Z,40.73
2022-12-23T17:38:29.126Z,47.43
2022-12-23T17:40:59.483Z,42.23
2022-12-23T17:43:28.337Z,45.00
2022-12-23T17:45:56.798Z,48.83
2022-12-23T17:48:31.174Z,50.23
2022-12-23T17:51:00.345Z,49.80
2022-12-23T17:53:30.275Z,46.67
2022-12-23T17:55:58.725Z,40.17
2022-12-23T17:58:27.211Z,46.23
2022-12-23T18:00:55.787Z,44.77
2022-12-23T18:03:25.144Z,43.60
2022-12-23T18:06:01.278Z,45.07
2022-12-23T18:08:31.967Z,44.40
2022-12-23T18:11:01.133Z,41.97
2022-12-23T18:13:29.638Z,42.27
2022-12-23T18:15:58.276Z,41.83
2022-12-23T18:18:37.817Z,41.80
2022-12-23T18:21:13.105Z,47.40
2022-12-23T18:23:42.955Z,41.97
2022-12-23T18:26:15.146Z,53.23
2022-12-23T18:28:44.014Z,57.37
2022-12-23T18:31:16.525Z,59.93
2022-12-23T18:33:45.184Z,49.00
2022-12-23T18:36:23.205Z,48.33
2022-12-23T18:38:53.723Z,47.10
2022-12-23T18:41:23.082Z,52.90
2022-12-23T18:43:52.560Z,60.00
2022-12-23T18:46:21.640Z,58.63
2022-12-23T18:48:51.478Z,67.87
2022-12-23T18:51:21.555Z,70.20
2022-12-23T18:53:50.089Z,66.80
2022-12-23T18:56:21.449Z,68.37
2022-12-23T18:58:49.984Z,75.07
2022-12-23T19:01:19.316Z,79.17
2022-12-23T19:03:48.171Z,86.03
2022-12-23T19:06:17.483Z,79.80
2022-12-23T19:08:46.336Z,75.03
2022-12-23T19:11:16.398Z,80.50
2022-12-23T19:13:46.863Z,78.13
2022-12-23T19:16:17.406Z,85.27
2022-12-23T19:18:46.587Z,78.03
2022-12-23T19:21:15.753Z,87.63
2022-12-23T19:23:44.948Z,87.60
2022-12-23T19:26:15.095Z,100.47
2022-12-23T19:28:45.386Z,94.10
2022-12-23T19:31:15.300Z,90.60
2022-12-23T19:33:45.291Z,98.57
2022-12-23T19:36:15.320Z,81.40
2022-12-23T19:38:43.840Z,93.43
2022-12-23T19:41:12.430Z,95.40
2022-12-23T19:43:41.021Z,99.63
2022-12-23T19:46:11.798Z,92.77
2022-12-23T19:48:40.466Z,101.07
2022-12-23T19:51:10.943Z,105.67
2022-12-23T19:53:39.935Z,114.00
2022-12-23T19:56:11.560Z,106.27
2022-12-23T19:58:41.683Z,115.27
2022-12-23T20:01:13.889Z,106.60
2022-12-23T20:03:44.891Z,117.13
2022-12-23T20:06:17.223Z,134.07
2022-12-23T20:08:46.703Z,119.53
2022-12-23T20:11:17.491Z,123.13
2022-12-23T20:13:46.612Z,118.37
2022-12-23T20:16:16.565Z,127.50
2022-12-23T20:18:44.945Z,146.70
2022-12-23T20:21:13.477Z,128.30
2022-12-23T20:23:41.949Z,128.97
2022-12-23T20:26:11.730Z,137.23
2022-12-23T20:28:40.298Z,129.00
2022-12-23T20:31:14.272Z,129.60
2022-12-23T20:33:44.429Z,117.90
2022-12-23T20:36:14.079Z,125.30
2022-12-23T20:38:44.615Z,129.20
2022-12-23T20:41:15.107Z,121.83
2022-12-23T20:43:46.092Z,129.67
2022-12-23T20:46:22.624Z,111.20
2022-12-23T20:48:53.289Z,118.73
2022-12-23T20:51:24.204Z,128.83
2022-12-23T20:53:53.507Z,119.80
2022-12-23T20:56:27.458Z,121.50
2022-12-23T20:58:57.863Z,120.83
2022-12-23T21:01:29.446Z,131.40
2022-12-23T21:04:01.597Z,124.57
2022-12-23T21:06:31.805Z,119.77
2022-12-23T21:09:01.702Z,118.83
2022-12-23T21:11:31.378Z,126.90
2022-12-23T21:14:06.276Z,115.27
2022-12-23T21:16:36.932Z,125.73
2022-12-23T21:19:07.545Z,118.27
2022-12-23T21:21:36.164Z,108.80
2022-12-23T21:24:05.334Z,120.87
2022-12-23T21:26:35.372Z,118.80
2022-12-23T21:29:06.062Z,115.10
2022-12-23T21:31:36.594Z,114.07
2022-12-23T21:34:06.983Z,120.13
2022-12-23T21:36:38.633Z,121.03
2022-12-23T21:39:08.705Z,118.33
2022-12-23T21:41:39.077Z,124.03
2022-12-23T21:44:07.838Z,128.43
2022-12-23T21:46:36.577Z,117.00
2022-12-23T21:49:06.517Z,119.73
2022-12-23T21:51:40.134Z,118.33
2022-12-23T21:54:10.968Z,121.83
2022-12-23T21:56:40.645Z,122.73
2022-12-23T21:59:12.303Z,116.67
2022-12-23T22:01:41.561Z,119.30
2022-12-23T22:04:11.831Z,110.30
2022-12-23T22:06:43.674Z,111.97
2022-12-23T22:09:14.314Z,108.57
2022-12-23T22:11:43.230Z,110.60
2022-12-23T22:14:14.728Z,115.13
2022-12-23T22:16:43.311Z,112.53
2022-12-23T22:19:13.663Z,111.23
2022-12-23T22:21:42.790Z,116.37
2022-12-23T22:24:11.577Z,110.90
2022-12-23T22:26:40.697Z,110.97
2022-12-23T22:29:09.524Z,123.60
2022-12-23T22:31:41.488Z,117.83
2022-12-23T22:34:14.866Z,118.87
2022-12-23T22:36:44.083Z,127.70
2022-12-23T22:39:20.001Z,150.93
2022-12-23T22:41:49.849Z,148.50
2022-12-23T22:44:18.740Z,137.97
2022-12-23T22:46:47.416Z,129.10
2022-12-23T22:49:18.159Z,134.50
2022-12-23T22:51:46.778Z,146.73
2022-12-23T22:54:15.275Z,140.37
2022-12-23T22:56:49.323Z,139.10
2022-12-23T22:59:24.237Z,138.33
2022-12-23T23:02:01.046Z,137.73
2022-12-23T23:04:31.058Z,136.17
2022-12-23T23:06:59.388Z,135.33
2022-12-23T23:09:27.778Z,139.47
2022-12-23T23:11:56.180Z,139.57
2022-12-23T23:14:24.604Z,140.77
2022-12-23T23:16:53.002Z,136.07
2022-12-23T23:19:21.633Z,141.23
2022-12-23T23:21:53.486Z,137.07
2022-12-23T23:24:27.702Z,163.60
2022-12-23T23:26:59.535Z,141.77
2022-12-23T23:29:27.902Z,153.20
2022-12-23T23:31:56.405Z,141.77
2022-12-23T23:34:24.760Z,140.70
2022-12-23T23:36:54.475Z,141.00
2022-12-23T23:39:22.939Z,137.00
2022-12-23T23:41:51.341Z,141.93
2022-12-23T23:44:19.930Z,147.80
2022-12-23T23:46:48.758Z,146.83
2022-12-23T23:49:17.097Z,143.60
2022-12-23T23:51:45.391Z,131.40
2022-12-23T23:54:15.093Z,129.17
2022-12-23T23:56:43.453Z,119.07
2022-12-23T23:59:11.954Z,130.63
